createdAt,value
2022-10-19T00:00:00.829Z,88.6
2022-10-19T00:01:00.972Z,88.5
2022-10-19T00:02:01.164Z,88.5
2022-10-19T00:03:00.276Z,88.6
2022-10-19T00:04:02.420Z,88.5
2022-10-19T00:05:00.596Z,88.6
2022-10-19T00:06:00.710Z,88.6
2022-10-19T00:07:00.871Z,88.6
2022-10-19T00:08:01.026Z,88.6
2022-10-19T00:09:01.191Z,89
2022-10-19T00:10:00.310Z,89.1
2022-10-19T00:11:00.459Z,89
2022-10-19T00:12:00.603Z,88.9
2022-10-19T00:13:00.765Z,88.9
2022-10-19T00:14:00.912Z,88.8
2022-10-19T00:15:01.055Z,88.8
2022-10-19T00:16:01.210Z,88.7
2022-10-19T00:17:00.362Z,88.7
2022-10-19T00:18:00.505Z,88.8
2022-10-19T00:19:00.667Z,88.8
2022-10-19T00:20:00.821Z,88.8
2022-10-19T00:21:00.955Z,88.8
2022-10-19T00:22:01.094Z,88.8
2022-10-19T00:23:01.253Z,88.8
2022-10-19T00:24:00.417Z,88.8
2022-10-19T00:25:00.577Z,88.8
2022-10-19T00:26:00.721Z,88.9
2022-10-19T00:27:00.863Z,88.9
2022-10-19T00:28:01.027Z,89.1
2022-10-19T00:29:01.226Z,89.2
2022-10-19T00:30:00.307Z,89.1
2022-10-19T00:31:00.448Z,88.9
2022-10-19T00:32:00.592Z,88.8
2022-10-19T00:33:00.750Z,88.8
2022-10-19T00:34:00.880Z,89.4
2022-10-19T00:35:01.021Z,89.8
2022-10-19T00:36:01.166Z,90.2
2022-10-19T00:37:00.323Z,90.3
2022-10-19T00:38:00.484Z,90
2022-10-19T00:39:00.606Z,90
2022-10-19T00:40:00.762Z,90.4
2022-10-19T00:41:00.906Z,90.6
2022-10-19T00:42:01.043Z,90.8
2022-10-19T00:43:01.220Z,91
2022-10-19T00:44:00.342Z,91.1
2022-10-19T00:45:00.489Z,91.3
2022-10-19T00:46:00.645Z,91.4
2022-10-19T00:47:00.793Z,91.4
2022-10-19T00:48:00.962Z,91.5
2022-10-19T00:49:01.535Z,91.6
2022-10-19T00:50:01.242Z,91.7
2022-10-19T00:51:00.385Z,91.8
2022-10-19T00:52:00.532Z,91.8
2022-10-19T00:53:00.677Z,91.7
2022-10-19T00:54:00.853Z,91.6
2022-10-19T00:55:00.974Z,91.7
2022-10-19T00:56:01.132Z,91.8
2022-10-19T00:57:00.281Z,91.8
2022-10-19T00:58:00.428Z,91.8
2022-10-19T00:59:00.596Z,91.8
2022-10-19T01:00:00.755Z,91.8
2022-10-19T01:01:00.919Z,91.9
2022-10-19T01:02:01.015Z,91.9
2022-10-19T01:03:01.185Z,92
2022-10-19T01:04:00.331Z,92
2022-10-19T01:05:00.511Z,91.9
2022-10-19T01:06:00.650Z,91.8
2022-10-19T01:07:00.814Z,91.7
2022-10-19T01:08:00.942Z,91.7
2022-10-19T01:09:01.085Z,91.7
2022-10-19T01:10:01.236Z,91.8
2022-10-19T01:11:00.386Z,91.8
2022-10-19T01:12:00.551Z,91.8
2022-10-19T01:13:00.674Z,91.8
2022-10-19T01:14:00.825Z,91.8
2022-10-19T01:15:00.973Z,91.9
2022-10-19T01:16:01.122Z,91.9
2022-10-19T01:17:00.289Z,91.9
2022-10-19T01:18:00.411Z,91.9
2022-10-19T01:19:00.566Z,91.9
2022-10-19T01:20:00.707Z,91.9
2022-10-19T01:21:00.852Z,91.9
2022-10-19T01:22:01.030Z,91.9
2022-10-19T01:23:01.150Z,92
2022-10-19T01:24:00.303Z,92
2022-10-19T01:25:00.462Z,92
2022-10-19T01:26:00.602Z,91.9
2022-10-19T01:27:00.768Z,91.9
2022-10-19T01:28:00.924Z,91.9
2022-10-19T01:29:01.135Z,91.9
2022-10-19T01:30:01.197Z,91.9
2022-10-19T01:31:00.359Z,91.8
2022-10-19T01:32:00.479Z,91.8
2022-10-19T01:33:00.638Z,91.8
2022-10-19T01:34:00.787Z,91.8
2022-10-19T01:35:00.936Z,91.7
2022-10-19T01:36:01.107Z,91.7
2022-10-19T01:37:01.237Z,91.7
2022-10-19T01:38:00.389Z,91.7
2022-10-19T01:39:00.513Z,91.8
2022-10-19T01:40:00.661Z,91.6
2022-10-19T01:41:00.805Z,91.5
2022-10-19T01:42:00.955Z,91.4
2022-10-19T01:43:01.167Z,91.3
2022-10-19T01:45:00.362Z,91.3
2022-10-19T01:46:00.515Z,91.4
2022-10-19T01:47:00.668Z,91.3
2022-10-19T01:48:00.830Z,91.4
2022-10-19T01:49:00.950Z,91.5
2022-10-19T01:50:01.099Z,91.5
2022-10-19T01:51:01.239Z,91.5
2022-10-19T01:52:00.387Z,91.5
2022-10-19T01:53:00.543Z,91.5
2022-10-19T01:54:00.713Z,91.6
2022-10-19T01:55:00.834Z,91.7
2022-10-19T01:56:00.987Z,91.7
2022-10-19T01:57:01.132Z,91.6
2022-10-19T01:58:00.278Z,91.6
2022-10-19T01:59:00.433Z,91.6
2022-10-19T02:00:00.567Z,91.6
2022-10-19T02:01:00.919Z,91.6
2022-10-19T02:02:00.903Z,91.5
2022-10-19T02:03:01.014Z,91.3
2022-10-19T02:04:01.170Z,91.2
2022-10-19T02:05:00.309Z,91.2
2022-10-19T02:06:00.451Z,91.2
2022-10-19T02:07:00.624Z,91.4
2022-10-19T02:08:00.748Z,91.5
2022-10-19T02:09:00.896Z,91.6
2022-10-19T02:10:01.111Z,91.7
2022-10-19T02:11:01.169Z,91.7
2022-10-19T02:12:00.319Z,91.8
2022-10-19T02:13:00.468Z,91.7
2022-10-19T02:14:00.609Z,91.6
2022-10-19T02:15:00.775Z,91.6
2022-10-19T02:16:00.912Z,91.7
2022-10-19T02:17:01.041Z,91.8
2022-10-19T02:18:01.222Z,91.8
2022-10-19T02:19:00.347Z,91.8
2022-10-19T02:20:00.526Z,91.9
2022-10-19T02:21:00.636Z,91.9
2022-10-19T02:22:00.792Z,92
2022-10-19T02:23:00.945Z,91.9
2022-10-19T02:24:01.090Z,91.8
2022-10-19T02:25:01.244Z,91.9
2022-10-19T02:26:00.390Z,91.9
2022-10-19T02:27:00.549Z,91.9
2022-10-19T02:28:00.693Z,91.9
2022-10-19T02:29:00.844Z,92
2022-10-19T02:30:00.985Z,92.1
2022-10-19T02:31:01.136Z,92
2022-10-19T02:32:00.265Z,92
2022-10-19T02:33:00.420Z,92
2022-10-19T02:34:00.569Z,92
2022-10-19T02:35:00.719Z,92
2022-10-19T02:36:00.880Z,92
2022-10-19T02:37:01.012Z,92
2022-10-19T02:38:01.158Z,91.9
2022-10-19T02:39:00.307Z,91.9
2022-10-19T02:40:00.449Z,91.8
2022-10-19T02:41:00.618Z,91.7
2022-10-19T02:42:00.738Z,91.5
2022-10-19T02:43:00.883Z,91.4
2022-10-19T02:44:01.038Z,91.3
2022-10-19T02:45:01.180Z,91.2
2022-10-19T02:46:00.345Z,91.2
2022-10-19T02:47:00.479Z,91.1
2022-10-19T02:48:00.623Z,91
2022-10-19T02:49:00.774Z,91
2022-10-19T02:50:00.914Z,91
2022-10-19T02:51:01.085Z,91.1
2022-10-19T02:52:01.231Z,91.3
2022-10-19T02:53:00.372Z,91.3
2022-10-19T02:54:04.128Z,91.4
2022-10-19T02:55:00.663Z,91.5
2022-10-19T02:56:00.823Z,91.6
2022-10-19T02:57:01.001Z,91.7
2022-10-19T02:58:01.130Z,91.8
2022-10-19T02:59:00.271Z,91.9
2022-10-19T03:00:00.438Z,91.9
2022-10-19T03:01:00.617Z,92
2022-10-19T03:02:00.747Z,92.2
2022-10-19T03:03:00.893Z,92.2
2022-10-19T03:04:01.015Z,92.2
2022-10-19T03:05:01.167Z,92.2
2022-10-19T03:06:00.314Z,92.2
2022-10-19T03:07:00.455Z,92
2022-10-19T03:08:00.628Z,91.9
2022-10-19T03:09:00.748Z,91.8
2022-10-19T03:10:00.900Z,91.7
2022-10-19T03:11:01.038Z,91.6
2022-10-19T03:12:01.179Z,91.6
2022-10-19T03:13:00.342Z,91.7
2022-10-19T03:14:00.503Z,91.8
2022-10-19T03:15:00.614Z,91.8
2022-10-19T03:16:00.757Z,91.9
2022-10-19T03:17:00.918Z,91.9
2022-10-19T03:18:01.072Z,91.7
2022-10-19T03:19:01.244Z,91.5
2022-10-19T03:20:00.370Z,91.3
2022-10-19T03:21:00.554Z,91.2
2022-10-19T03:22:00.663Z,91.1
2022-10-19T03:23:00.814Z,90.9
2022-10-19T03:24:00.963Z,90.9
2022-10-19T03:25:01.118Z,90.9
2022-10-19T03:26:00.292Z,90.8
2022-10-19T03:27:00.419Z,90.8
2022-10-19T03:28:00.562Z,90.7
2022-10-19T03:29:00.787Z,90.6
2022-10-19T03:30:00.878Z,90.6
2022-10-19T03:31:01.039Z,90.5
2022-10-19T03:32:01.174Z,90.6
2022-10-19T03:33:00.338Z,90.9
2022-10-19T03:34:00.465Z,91
2022-10-19T03:35:00.606Z,91.1
2022-10-19T03:36:00.767Z,91
2022-10-19T03:37:00.909Z,91
2022-10-19T03:38:01.086Z,90.8
2022-10-19T03:39:01.206Z,90.8
2022-10-19T03:40:00.371Z,91
2022-10-19T03:41:00.501Z,91
2022-10-19T03:42:00.650Z,91.2
2022-10-19T03:43:00.811Z,91.3
2022-10-19T03:45:01.098Z,91.2
2022-10-19T03:46:01.246Z,91.2
2022-10-19T03:47:00.391Z,91.1
2022-10-19T03:48:00.540Z,90.9
2022-10-19T03:49:00.722Z,90.9
2022-10-19T03:50:00.836Z,91.1
2022-10-19T03:51:00.978Z,91.2
2022-10-19T03:52:01.129Z,91.1
2022-10-19T03:53:00.367Z,91
2022-10-19T03:54:00.454Z,90.9
2022-10-19T03:55:00.574Z,91.1
2022-10-19T03:56:00.733Z,91.3
2022-10-19T03:57:00.869Z,91.3
2022-10-19T03:58:01.016Z,91.4
2022-10-19T03:59:01.188Z,91.6
2022-10-19T04:00:00.347Z,91.6
2022-10-19T04:01:00.555Z,91.6
2022-10-19T04:02:00.602Z,91.5
2022-10-19T04:03:00.751Z,91.6
2022-10-19T04:04:00.888Z,91.5
2022-10-19T04:05:01.069Z,91.5
2022-10-19T04:06:01.175Z,91.6
2022-10-19T04:07:00.326Z,91.6
2022-10-19T04:08:00.474Z,91.7
2022-10-19T04:09:00.604Z,91.9
2022-10-19T04:10:00.769Z,91.9
2022-10-19T04:11:00.926Z,91.8
2022-10-19T04:12:01.078Z,91.9
2022-10-19T04:13:01.214Z,91.9
2022-10-19T04:14:00.416Z,91.9
2022-10-19T04:15:00.486Z,92
2022-10-19T04:16:00.661Z,92
2022-10-19T04:17:00.797Z,92.1
2022-10-19T04:18:00.978Z,92.2
2022-10-19T04:19:01.115Z,92.1
2022-10-19T04:20:01.234Z,92.1
2022-10-19T04:21:00.399Z,92.1
2022-10-19T04:22:00.530Z,92.3
2022-10-19T04:23:00.679Z,92.3
2022-10-19T04:24:00.846Z,92.3
2022-10-19T04:25:00.991Z,92.4
2022-10-19T04:26:01.165Z,92.5
2022-10-19T04:27:00.291Z,92.5
2022-10-19T04:28:00.445Z,92.5
2022-10-19T04:29:00.695Z,92.6
2022-10-19T04:30:00.755Z,92.6
2022-10-19T04:31:00.928Z,92.6
2022-10-19T04:32:01.044Z,92.6
2022-10-19T04:33:01.195Z,92.6
2022-10-19T04:34:00.353Z,92.6
2022-10-19T04:35:00.491Z,92.6
2022-10-19T04:36:00.663Z,92.7
2022-10-19T04:37:00.790Z,92.7
2022-10-19T04:38:00.938Z,92.7
2022-10-19T04:39:01.083Z,92.7
2022-10-19T04:40:01.230Z,92.7
2022-10-19T04:41:00.383Z,92.7
2022-10-19T04:42:00.513Z,92.7
2022-10-19T04:43:00.674Z,92.8
2022-10-19T04:44:00.829Z,92.8
2022-10-19T04:45:00.971Z,92.7
2022-10-19T04:46:01.137Z,92.8
2022-10-19T04:47:00.260Z,92.8
2022-10-19T04:48:00.417Z,92.7
2022-10-19T04:49:00.561Z,92.7
2022-10-19T04:50:00.709Z,92.7
2022-10-19T04:51:00.879Z,92.8
2022-10-19T04:52:00.999Z,92.8
2022-10-19T04:53:01.148Z,92.7
2022-10-19T04:54:00.360Z,92.6
2022-10-19T04:55:00.436Z,92.5
2022-10-19T04:56:00.600Z,92.5
2022-10-19T04:57:00.733Z,92.5
2022-10-19T04:58:00.878Z,92.5
2022-10-19T04:59:01.034Z,92.5
2022-10-19T05:00:01.174Z,92.5
2022-10-19T05:01:00.439Z,92.4
2022-10-19T05:02:00.499Z,92.4
2022-10-19T05:03:00.628Z,92.3
2022-10-19T05:04:00.892Z,92.3
2022-10-19T05:05:00.926Z,92.2
2022-10-19T05:06:01.057Z,92.2
2022-10-19T05:07:01.231Z,92.2
2022-10-19T05:08:00.361Z,92.1
2022-10-19T05:09:00.501Z,92
2022-10-19T05:10:00.654Z,92
2022-10-19T05:11:00.802Z,91.9
2022-10-19T05:12:00.982Z,91.8
2022-10-19T05:13:01.103Z,91.7
2022-10-19T05:14:01.255Z,91.5
2022-10-19T05:15:00.399Z,91.6
2022-10-19T05:16:00.552Z,91.7
2022-10-19T05:17:00.710Z,91.9
2022-10-19T05:18:00.847Z,92
2022-10-19T05:19:00.997Z,92.1
2022-10-19T05:20:01.145Z,92.2
2022-10-19T05:21:00.313Z,92.2
2022-10-19T05:22:00.445Z,92.3
2022-10-19T05:23:04.739Z,92.4
2022-10-19T05:24:00.745Z,92.4
2022-10-19T05:25:00.890Z,92.4
2022-10-19T05:26:01.047Z,92.4
2022-10-19T05:27:01.186Z,92.5
2022-10-19T05:28:00.326Z,92.4
2022-10-19T05:29:00.590Z,92.2
2022-10-19T05:30:00.619Z,92.2
2022-10-19T05:31:00.814Z,92.2
2022-10-19T05:32:00.920Z,92.3
2022-10-19T05:33:01.073Z,92.3
2022-10-19T05:34:01.295Z,92.1
2022-10-19T05:35:00.367Z,92
2022-10-19T05:36:00.652Z,92.1
2022-10-19T05:37:00.670Z,92
2022-10-19T05:38:00.797Z,91.9
2022-10-19T05:39:00.943Z,92
2022-10-19T05:40:01.090Z,92.1
2022-10-19T05:41:01.243Z,91.9
2022-10-19T05:42:00.390Z,91.8
2022-10-19T05:43:00.554Z,91.7
2022-10-19T05:44:00.673Z,91.7
2022-10-19T05:45:00.830Z,91.5
2022-10-19T05:46:00.981Z,91.4
2022-10-19T05:47:01.129Z,91.3
2022-10-19T05:48:00.293Z,91.2
2022-10-19T05:49:00.422Z,91
2022-10-19T05:50:00.574Z,90.9
2022-10-19T05:51:00.718Z,90.8
2022-10-19T05:52:00.868Z,90.8
2022-10-19T05:53:01.047Z,90.8
2022-10-19T05:54:01.171Z,90.8
2022-10-19T05:55:00.301Z,90.7
2022-10-19T05:56:00.462Z,90.6
2022-10-19T05:57:00.606Z,90.5
2022-10-19T05:58:00.771Z,90.6
2022-10-19T05:59:00.906Z,90.6
2022-10-19T06:00:01.049Z,90.6
2022-10-19T06:01:01.193Z,90.6
2022-10-19T06:02:00.363Z,90.6
2022-10-19T06:03:00.509Z,90.6
2022-10-19T06:04:00.639Z,90.6
2022-10-19T06:05:00.795Z,90.6
2022-10-19T06:06:00.943Z,90.7
2022-10-19T06:07:01.103Z,90.6
2022-10-19T06:08:01.266Z,90.5
2022-10-19T06:09:00.383Z,90.4
2022-10-19T06:10:00.526Z,90.5
2022-10-19T06:11:00.669Z,90.6
2022-10-19T06:12:00.833Z,90.8
2022-10-19T06:13:01.011Z,91
2022-10-19T06:14:01.131Z,91.1
2022-10-19T06:15:00.294Z,91
2022-10-19T06:16:00.428Z,91
2022-10-19T06:17:00.566Z,90.8
2022-10-19T06:18:00.720Z,90.7
2022-10-19T06:19:00.855Z,90.6
2022-10-19T06:20:00.998Z,90.6
2022-10-19T06:21:01.175Z,90.5
2022-10-19T06:22:00.307Z,90.3
2022-10-19T06:23:00.451Z,90.3
2022-10-19T06:24:00.608Z,90.3
2022-10-19T06:25:00.785Z,90.2
2022-10-19T06:26:00.929Z,90.1
2022-10-19T06:27:01.078Z,90.1
2022-10-19T06:28:01.200Z,90
2022-10-19T06:29:00.456Z,90.1
2022-10-19T06:30:00.488Z,90.2
2022-10-19T06:31:00.718Z,90.2
2022-10-19T06:32:00.791Z,90
2022-10-19T06:33:01.013Z,89.9
2022-10-19T06:34:01.103Z,89.9
2022-10-19T06:35:01.201Z,90
2022-10-19T06:36:00.343Z,90
2022-10-19T06:37:00.498Z,90.4
2022-10-19T06:38:00.666Z,90.5
2022-10-19T06:39:00.789Z,90.4
2022-10-19T06:40:04.844Z,90.5
2022-10-19T06:41:01.082Z,90.6
2022-10-19T06:42:01.235Z,90.7
2022-10-19T06:43:00.408Z,90.8
2022-10-19T06:44:00.536Z,90.4
2022-10-19T06:45:00.671Z,90.2
2022-10-19T06:46:00.826Z,90
2022-10-19T06:47:00.991Z,89.7
2022-10-19T06:48:03.598Z,89.6
2022-10-19T06:49:00.278Z,89.4
2022-10-19T06:50:00.433Z,89.5
2022-10-19T06:51:00.587Z,89.6
2022-10-19T06:52:00.722Z,89.7
2022-10-19T06:53:00.913Z,89.6
2022-10-19T06:54:01.020Z,89.6
2022-10-19T06:55:01.149Z,89.5
2022-10-19T06:56:00.297Z,89.4
2022-10-19T06:57:00.434Z,89.4
2022-10-19T06:58:00.607Z,89.5
2022-10-19T06:59:00.733Z,89.4
2022-10-19T07:00:00.879Z,89.2
2022-10-19T07:01:01.141Z,89.2
2022-10-19T07:02:01.178Z,89.5
2022-10-19T07:03:00.347Z,89.7
2022-10-19T07:04:00.455Z,89.9
2022-10-19T07:05:04.657Z,89.9
2022-10-19T07:06:00.760Z,89.4
2022-10-19T07:07:00.910Z,89.3
2022-10-19T07:08:01.145Z,88.8
2022-10-19T07:09:01.208Z,88.4
2022-10-19T07:10:00.364Z,88.4
2022-10-19T07:11:00.513Z,88.1
2022-10-19T07:12:00.656Z,88.4
2022-10-19T07:13:00.867Z,88.9
2022-10-19T07:14:00.982Z,89.3
2022-10-19T07:15:01.106Z,89.3
2022-10-19T07:16:01.239Z,89.5
2022-10-19T07:17:00.392Z,89.8
2022-10-19T07:18:00.534Z,89.9
2022-10-19T07:19:00.712Z,90
2022-10-19T07:20:00.847Z,90.1
2022-10-19T07:21:00.997Z,89.9
2022-10-19T07:22:01.143Z,89.9
2022-10-19T07:23:00.302Z,89.8
2022-10-19T07:24:00.458Z,89.8
2022-10-19T07:25:00.587Z,89.6
2022-10-19T07:26:00.728Z,88.9
2022-10-19T07:27:00.880Z,87.5
2022-10-19T07:28:01.027Z,87.1
2022-10-19T07:29:01.209Z,87.2
2022-10-19T07:30:00.310Z,87.5
2022-10-19T07:31:00.456Z,87.8
2022-10-19T07:32:00.610Z,87.6
2022-10-19T07:33:00.771Z,86.4
2022-10-19T07:34:00.939Z,87.1
2022-10-19T07:35:01.064Z,87.9
2022-10-19T07:36:01.227Z,87.9
2022-10-19T07:37:00.357Z,87
2022-10-19T07:38:00.506Z,86.9
2022-10-19T07:39:00.690Z,87.2
2022-10-19T07:40:00.807Z,87.8
2022-10-19T07:41:00.962Z,88.1
2022-10-19T07:42:01.101Z,88.1
2022-10-19T07:43:01.252Z,87.1
2022-10-19T07:44:00.411Z,86.5
2022-10-19T07:45:00.538Z,86.7
2022-10-19T07:46:00.687Z,87.1
2022-10-19T07:47:00.826Z,86.6
2022-10-19T07:48:00.993Z,86.3
2022-10-19T07:49:01.144Z,86.6
2022-10-19T07:50:00.279Z,87
2022-10-19T07:51:00.413Z,86.1
2022-10-19T07:52:00.604Z,86.8
2022-10-19T07:53:00.712Z,87
2022-10-19T07:54:00.853Z,85.5
2022-10-19T07:55:01.012Z,85.2
2022-10-19T07:56:01.157Z,85.8
2022-10-19T07:57:00.316Z,86.3
2022-10-19T07:58:00.460Z,86
2022-10-19T07:59:00.599Z,86.4
2022-10-19T08:00:00.758Z,86.6
2022-10-19T08:01:00.896Z,86.9
2022-10-19T08:02:01.129Z,85.3
2022-10-19T08:03:43.205Z,86.2
2022-10-19T08:05:03.226Z,85.2
2022-10-19T08:06:00.618Z,84.1
2022-10-19T08:07:00.788Z,84.1
2022-10-19T08:08:00.908Z,85.1
2022-10-19T08:09:01.133Z,84
2022-10-19T08:10:01.189Z,82.8
2022-10-19T08:11:00.346Z,83.3
2022-10-19T08:12:00.498Z,83.8
2022-10-19T08:13:00.651Z,84
2022-10-19T08:14:00.785Z,84.1
2022-10-19T08:15:00.929Z,84.4
2022-10-19T08:16:01.077Z,85
2022-10-19T08:17:01.248Z,84.2
2022-10-19T08:18:00.362Z,83.7
2022-10-19T08:19:00.512Z,84.1
2022-10-19T08:20:00.666Z,84.1
2022-10-19T08:21:00.819Z,83.3
2022-10-19T08:22:00.979Z,83.3
2022-10-19T08:23:01.117Z,83.1
2022-10-19T08:24:00.270Z,82.8
2022-10-19T08:25:00.440Z,82.8
2022-10-19T08:26:00.562Z,82.5
2022-10-19T08:27:00.722Z,82.9
2022-10-19T08:28:00.858Z,83.2
2022-10-19T08:29:01.001Z,82.7
2022-10-19T08:30:01.149Z,82.7
2022-10-19T08:31:00.295Z,82.9
2022-10-19T08:32:00.463Z,82.9
2022-10-19T08:33:00.599Z,82.7
2022-10-19T08:34:00.749Z,83.3
2022-10-19T08:35:00.910Z,83
2022-10-19T08:36:01.054Z,82.5
2022-10-19T08:37:06.698Z,82.1
2022-10-19T08:38:02.759Z,82
2022-10-19T08:39:00.490Z,81.8
2022-10-19T08:40:00.644Z,81.9
2022-10-19T08:41:00.801Z,82
2022-10-19T08:42:00.975Z,82.5
2022-10-19T08:43:01.123Z,81.6
2022-10-19T08:44:00.261Z,82.2
2022-10-19T08:45:00.428Z,81.9
2022-10-19T08:46:00.591Z,81.6
2022-10-19T08:47:02.538Z,81.7
2022-10-19T08:48:00.885Z,81.7
2022-10-19T08:49:01.024Z,82.1
2022-10-19T08:50:01.168Z,81.6
2022-10-19T08:51:00.344Z,82.4
2022-10-19T08:52:00.450Z,82.5
2022-10-19T08:53:00.609Z,81.7
2022-10-19T08:54:00.762Z,82.2
2022-10-19T08:55:00.920Z,82
2022-10-19T08:56:04.581Z,82.3
2022-10-19T08:57:01.226Z,81.1
2022-10-19T08:58:00.366Z,81.7
2022-10-19T08:59:00.512Z,82.4
2022-10-19T09:00:00.648Z,82.2
2022-10-19T09:01:00.819Z,80.8
2022-10-19T09:02:00.949Z,81.8
2022-10-19T09:03:01.092Z,81.4
2022-10-19T09:04:01.247Z,81.3
2022-10-19T09:05:00.388Z,81.6
2022-10-19T09:06:00.553Z,81.9
2022-10-19T09:07:00.675Z,82.2
2022-10-19T09:08:00.826Z,81.5
2022-10-19T09:09:01.041Z,81.7
2022-10-19T09:10:01.139Z,82.4
2022-10-19T09:11:00.302Z,82.4
2022-10-19T09:12:00.439Z,81.2
2022-10-19T09:13:00.577Z,80.3
2022-10-19T09:14:05.072Z,80.1
2022-10-19T09:15:00.863Z,79.9
2022-10-19T09:16:01.011Z,80.1
2022-10-19T09:17:01.188Z,79.5
2022-10-19T09:18:00.307Z,79.8
2022-10-19T09:19:00.455Z,80.1
2022-10-19T09:20:00.599Z,80.8
2022-10-19T09:21:00.740Z,81.4
2022-10-19T09:22:00.911Z,82
2022-10-19T09:23:01.030Z,82.4
2022-10-19T09:24:01.185Z,81.5
2022-10-19T09:25:00.326Z,81.3
2022-10-19T09:26:00.472Z,80.7
2022-10-19T09:27:00.643Z,80
2022-10-19T09:29:00.904Z,79.5
2022-10-19T09:30:01.051Z,80.1
2022-10-19T09:31:01.202Z,79.6
2022-10-19T09:32:00.425Z,79.1
2022-10-19T09:33:00.505Z,79.4
2022-10-19T09:34:00.630Z,80.2
2022-10-19T09:35:00.796Z,80.9
2022-10-19T09:36:00.946Z,81.3
2022-10-19T09:37:01.127Z,81.2
2022-10-19T09:38:01.324Z,81.3
2022-10-19T09:39:00.387Z,81.3
2022-10-19T09:40:00.546Z,81.6
2022-10-19T09:41:00.690Z,81.8
2022-10-19T09:42:00.845Z,78.3
2022-10-19T09:43:01.009Z,76.1
2022-10-19T09:44:01.167Z,77.4
2022-10-19T09:45:00.279Z,78.9
2022-10-19T09:46:00.436Z,79.7
2022-10-19T09:47:00.587Z,78.8
2022-10-19T09:48:08.778Z,75.2
2022-10-19T09:49:00.894Z,75.8
2022-10-19T09:50:01.039Z,75.8
2022-10-19T09:51:01.180Z,75.4
2022-10-19T09:52:00.312Z,74.7
2022-10-19T09:53:00.481Z,76
2022-10-19T09:54:00.616Z,75.4
2022-10-19T09:55:00.767Z,75.7
2022-10-19T09:56:00.916Z,75.2
2022-10-19T09:57:01.050Z,75.8
2022-10-19T09:58:01.212Z,77.5
2022-10-19T09:59:00.349Z,77.1
2022-10-19T10:00:00.497Z,78.6
2022-10-19T10:01:00.672Z,78.9
2022-10-19T10:03:00.954Z,79.4
2022-10-19T10:04:01.103Z,79.1
2022-10-19T10:05:01.244Z,79.2
2022-10-19T10:06:00.397Z,79.7
2022-10-19T10:07:00.554Z,79.6
2022-10-19T10:08:00.683Z,79.4
2022-10-19T10:09:00.863Z,79.8
2022-10-19T10:10:00.980Z,79.6
2022-10-19T10:11:01.131Z,79.1
2022-10-19T10:12:00.436Z,80.1
2022-10-19T10:13:00.417Z,80
2022-10-19T10:14:00.565Z,79.1
2022-10-19T10:15:00.709Z,79.1
2022-10-19T10:16:00.861Z,79.5
2022-10-19T10:17:01.033Z,79.8
2022-10-19T10:18:01.159Z,79.7
2022-10-19T10:19:00.311Z,79.4
2022-10-19T10:20:00.459Z,80.6
2022-10-19T10:21:00.584Z,80
2022-10-19T10:22:00.738Z,78.8
2022-10-19T10:23:00.913Z,78.5
2022-10-19T10:24:01.030Z,78.9
2022-10-19T10:25:01.149Z,78.8
2022-10-19T10:26:00.298Z,78.7
2022-10-19T10:27:00.425Z,78.8
2022-10-19T10:28:00.600Z,78.7
2022-10-19T10:29:01.624Z,79.3
2022-10-19T10:30:00.876Z,79.8
2022-10-19T10:31:01.053Z,79.9
2022-10-19T10:32:01.161Z,79.5
2022-10-19T10:33:09.282Z,79.3
2022-10-19T10:34:07.503Z,79.6
2022-10-19T10:35:01.535Z,79.7
2022-10-19T10:36:00.775Z,78.9
2022-10-19T10:37:00.913Z,79
2022-10-19T10:38:01.068Z,79
2022-10-19T10:40:03.620Z,78.8
2022-10-19T10:41:00.521Z,79.2
2022-10-19T10:42:00.663Z,79.2
2022-10-19T10:43:00.809Z,79.1
2022-10-19T10:44:03.861Z,79.1
2022-10-19T10:45:01.112Z,78.5
2022-10-19T10:46:01.262Z,78.6
2022-10-19T10:47:00.398Z,77.6
2022-10-19T10:48:00.603Z,77.5
2022-10-19T10:49:00.692Z,77.4
2022-10-19T10:50:00.884Z,77.3
2022-10-19T10:51:01.001Z,77.9
2022-10-19T10:52:01.153Z,77.6
2022-10-19T10:53:00.300Z,77.6
2022-10-19T10:54:00.460Z,77.5
2022-10-19T10:55:00.615Z,78
2022-10-19T10:56:00.759Z,77.6
2022-10-19T10:57:04.300Z,77.7
2022-10-19T10:58:01.056Z,78.1
2022-10-19T10:59:01.186Z,77.1
2022-10-19T11:00:00.372Z,77.9
2022-10-19T11:01:05.268Z,77.5
2022-10-19T11:02:00.686Z,78
2022-10-19T11:03:00.797Z,77.9
2022-10-19T11:04:00.934Z,77.9
2022-10-19T11:05:01.110Z,77.2
2022-10-19T11:06:01.243Z,77.5
2022-10-19T11:07:00.377Z,77.6
2022-10-19T11:08:00.525Z,77.8
2022-10-19T11:09:00.822Z,77.3
2022-10-19T11:10:00.820Z,77.1
2022-10-19T11:11:00.957Z,77.9
2022-10-19T11:12:01.105Z,78.2
2022-10-19T11:13:01.265Z,77.7
2022-10-19T11:14:00.399Z,76.6
2022-10-19T11:15:00.548Z,76.9
2022-10-19T11:16:00.695Z,77.8
2022-10-19T11:17:00.841Z,77.4
2022-10-19T11:18:01.004Z,77.4
2022-10-19T11:19:01.124Z,77.3
2022-10-19T11:20:00.274Z,77.8
2022-10-19T11:21:00.426Z,77.7
2022-10-19T11:22:00.580Z,77.3
2022-10-19T11:23:00.743Z,76.4
2022-10-19T11:24:00.887Z,76.7
2022-10-19T11:25:01.035Z,77.3
2022-10-19T11:26:01.187Z,77.9
2022-10-19T11:27:00.331Z,77.5
2022-10-19T11:28:00.499Z,77.3
2022-10-19T11:29:00.652Z,77.1
2022-10-19T11:30:00.783Z,77.2
2022-10-19T11:31:00.938Z,77.9
2022-10-19T11:32:01.087Z,76.8
2022-10-19T11:33:01.234Z,77.3
2022-10-19T11:34:00.497Z,77.3
2022-10-19T11:35:00.550Z,76.4
2022-10-19T11:36:00.672Z,76
2022-10-19T11:37:00.826Z,76.4
2022-10-19T11:38:18.772Z,76.5
2022-10-19T11:39:01.120Z,76.8
2022-10-19T11:40:00.272Z,76.6
2022-10-19T11:41:16.772Z,76
2022-10-19T11:42:00.562Z,74.9
2022-10-19T11:43:00.711Z,76.1
2022-10-19T11:44:00.857Z,75.8
2022-10-19T11:45:01.000Z,77.1
2022-10-19T11:46:01.162Z,76.3
2022-10-19T11:47:00.293Z,75.9
2022-10-19T11:48:00.454Z,76.6
2022-10-19T11:49:00.584Z,76.4
2022-10-19T11:50:00.784Z,75.3
2022-10-19T11:51:16.812Z,75.4
2022-10-19T11:52:01.055Z,76.1
2022-10-19T11:53:01.164Z,76.1
2022-10-19T11:54:00.313Z,74.9
2022-10-19T11:55:00.452Z,75.3
2022-10-19T11:56:00.619Z,76.1
2022-10-19T11:57:05.587Z,76.1
2022-10-19T11:58:00.918Z,76.4
2022-10-19T11:59:01.108Z,76.5
2022-10-19T12:00:13.557Z,77.2
2022-10-19T12:01:00.336Z,76.3
2022-10-19T12:02:00.518Z,76.2
2022-10-19T12:03:03.666Z,76.6
2022-10-19T12:04:00.789Z,76.1
2022-10-19T12:05:00.947Z,76.5
2022-10-19T12:06:01.088Z,75.3
2022-10-19T12:07:01.350Z,75.8
2022-10-19T12:08:00.398Z,76
2022-10-19T12:09:00.608Z,76.9
2022-10-19T12:10:00.692Z,75.6
2022-10-19T12:11:00.838Z,76.1
2022-10-19T12:12:01.004Z,77.3
2022-10-19T12:13:01.135Z,77.2
2022-10-19T12:14:00.316Z,76.1
2022-10-19T12:15:00.428Z,76.8
2022-10-19T12:16:00.575Z,76.1
2022-10-19T12:17:00.873Z,76.5
2022-10-19T12:18:00.867Z,76.4
2022-10-19T12:19:01.039Z,77.5
2022-10-19T12:20:01.184Z,76.9
2022-10-19T12:21:00.344Z,76.6
2022-10-19T12:22:00.469Z,77.5
2022-10-19T12:23:00.598Z,76.7
2022-10-19T12:24:00.758Z,75.7
2022-10-19T12:25:00.912Z,75.7
2022-10-19T12:26:01.085Z,76.1
2022-10-19T12:27:01.230Z,75.4
2022-10-19T12:28:00.350Z,75.9
2022-10-19T12:29:00.498Z,75.5
2022-10-19T12:30:00.659Z,75.7
2022-10-19T12:31:00.828Z,75.8
2022-10-19T12:32:00.961Z,74.8
2022-10-19T12:33:01.099Z,75.1
2022-10-19T12:34:01.265Z,75.1
2022-10-19T12:35:00.420Z,76.8
2022-10-19T12:36:00.570Z,76.9
2022-10-19T12:37:00.720Z,75.7
2022-10-19T12:38:00.861Z,75.3
2022-10-19T12:39:01.083Z,74.8
2022-10-19T12:40:01.178Z,74.3
2022-10-19T12:41:00.303Z,74.6
2022-10-19T12:42:00.468Z,74.9
2022-10-19T12:43:00.600Z,75.1
2022-10-19T12:44:00.753Z,74.9
2022-10-19T12:45:00.904Z,75.1
2022-10-19T12:46:01.044Z,75.2
2022-10-19T12:47:01.275Z,75.2
2022-10-19T12:48:00.346Z,73.6
2022-10-19T12:49:00.475Z,74.9
2022-10-19T12:50:00.620Z,75.8
2022-10-19T12:51:00.799Z,74.8
2022-10-19T12:52:00.925Z,74.8
2022-10-19T12:53:01.077Z,75.4
2022-10-19T12:54:01.226Z,73.8
2022-10-19T12:55:00.387Z,72.3
2022-10-19T12:56:00.533Z,73.1
2022-10-19T12:57:00.686Z,73.4
2022-10-19T12:58:00.821Z,73.1
2022-10-19T12:59:00.974Z,73.1
2022-10-19T13:00:01.110Z,73.9
2022-10-19T13:01:00.329Z,75
2022-10-19T13:02:00.402Z,75
2022-10-19T13:03:00.538Z,74.3
2022-10-19T13:04:00.688Z,75.3
2022-10-19T13:05:00.849Z,76.1
2022-10-19T13:06:01.011Z,76.3
2022-10-19T13:07:01.164Z,76.7
2022-10-19T13:08:00.273Z,77.2
2022-10-19T13:09:00.542Z,76.7
2022-10-19T13:10:00.565Z,76.9
2022-10-19T13:11:00.707Z,77.3
2022-10-19T13:12:00.874Z,77.3
2022-10-19T13:13:01.007Z,76.1
2022-10-19T13:14:01.160Z,76.2
2022-10-19T13:15:00.305Z,76.4
2022-10-19T13:16:00.474Z,76
2022-10-19T13:17:00.613Z,76.1
2022-10-19T13:18:00.762Z,76.5
2022-10-19T13:19:00.905Z,76.5
2022-10-19T13:20:01.052Z,77.2
2022-10-19T13:21:03.491Z,76.4
2022-10-19T13:22:00.346Z,76.5
2022-10-19T13:23:00.514Z,76.6
2022-10-19T13:24:00.653Z,76.4
2022-10-19T13:25:03.672Z,76.7
2022-10-19T13:26:00.984Z,76.4
2022-10-19T13:27:01.100Z,76.4
2022-10-19T13:28:01.245Z,76.7
2022-10-19T13:29:00.390Z,76.3